Time;durP1;ratioP1;P1;durP2;ratioP2;P2;SDS_P1;SDS_P2;PMS_P1;PMS_P2;Temp;Humidity;BMP_temperature;BMP_pressure;BME280_temperature;BME280_humidity;BME280_pressure;Samples;Min_cycle;Max_cycle;Signal;HPM_P1;HPM_P2
2021/10/16 00:00:33;;;;;;;14.50;5.80;;;9.80;98.30;;;;;;5205890;22;21019;-84
2021/10/16 00:02:36;;;;;;;6.57;3.40;;;9.80;98.30;;;;;;5206193;22;20899;-84
2021/10/16 00:04:41;;;;;;;11.73;4.40;;;9.90;98.30;;;;;;5203531;22;20915;-85
2021/10/16 00:06:44;;;;;;;9.67;3.90;;;9.90;98.30;;;;;;5201829;22;20983;-85
2021/10/16 00:08:47;;;;;;;10.20;4.00;;;9.90;98.30;;;;;;5203888;22;20510;-84
2021/10/16 00:10:50;;;;;;;7.73;3.70;;;9.90;98.30;;;;;;5193914;22;20502;-84
2021/10/16 00:12:53;;;;;;;5.87;3.60;;;9.90;98.30;;;;;;5204729;22;20454;-84
2021/10/16 00:14:56;;;;;;;9.97;3.73;;;9.90;98.30;;;;;;5193550;22;20946;-85
2021/10/16 00:16:59;;;;;;;8.63;3.57;;;9.90;98.30;;;;;;5205674;22;20498;-84
2021/10/16 00:19:02;;;;;;;9.20;3.37;;;9.80;98.30;;;;;;5204803;22;20426;-84
2021/10/16 00:21:06;;;;;;;10.83;4.60;;;9.80;98.30;;;;;;5203766;22;20475;-84
2021/10/16 00:23:09;;;;;;;11.23;4.03;;;9.70;98.30;;;;;;5203838;22;20510;-84
2021/10/16 00:25:12;;;;;;;10.83;3.40;;;9.80;98.30;;;;;;5202939;22;20419;-84
2021/10/16 00:27:15;;;;;;;8.83;2.90;;;9.80;98.30;;;;;;5203215;22;20509;-84
2021/10/16 00:29:18;;;;;;;12.23;3.53;;;9.80;98.30;;;;;;5203784;22;20490;-85
2021/10/16 00:31:21;;;;;;;12.87;3.87;;;9.80;98.30;;;;;;5203958;22;20455;-84
2021/10/16 00:33:25;;;;;;;7.67;3.80;;;9.80;98.30;;;;;;5193325;22;20520;-85
2021/10/16 00:35:28;;;;;;;9.20;3.70;;;9.80;98.30;;;;;;5200634;22;20446;-85
2021/10/16 00:37:32;;;;;;;8.57;3.87;;;9.80;98.30;;;;;;5192819;22;20453;-84
2021/10/16 00:39:35;;;;;;;8.80;3.30;;;9.80;98.30;;;;;;5201385;22;20419;-85
2021/10/16 00:41:38;;;;;;;13.80;4.37;;;9.80;98.30;;;;;;5201191;22;20437;-84
2021/10/16 00:43:41;;;;;;;5.63;2.80;;;9.80;98.30;;;;;;5201272;22;20502;-84
2021/10/16 00:45:44;;;;;;;9.47;3.57;;;9.80;98.30;;;;;;5200788;22;20442;-84
2021/10/16 00:47:48;;;;;;;5.07;3.27;;;9.80;98.30;;;;;;5200738;22;20427;-84
2021/10/16 00:49:51;;;;;;;6.53;3.60;;;9.80;98.30;;;;;;5192613;22;20471;-84
2021/10/16 00:51:54;;;;;;;14.27;3.97;;;9.80;98.30;;;;;;5201519;22;20502;-84
2021/10/16 00:53:59;;;;;;;8.10;2.93;;;9.80;98.30;;;;;;5193136;22;20449;-84
2021/10/16 00:56:03;;;;;;;7.07;3.60;;;9.80;98.30;;;;;;5201339;22;20923;-84
2021/10/16 00:58:06;;;;;;;11.73;3.80;;;9.70;98.30;;;;;;5201568;22;20729;-84
2021/10/16 01:00:11;;;;;;;7.47;3.60;;;9.70;98.30;;;;;;5193569;22;20525;-85
2021/10/16 01:02:19;;;;;;;9.63;3.50;;;9.70;98.30;;;;;;5201898;22;20446;-84
2021/10/16 01:04:22;;;;;;;7.70;3.50;;;9.80;98.30;;;;;;5193550;22;20826;-83
2021/10/16 01:06:25;;;;;;;4.80;3.30;;;9.80;98.30;;;;;;5201497;22;20469;-83
2021/10/16 01:08:30;;;;;;;9.30;3.37;;;9.80;98.30;;;;;;5193695;22;20975;-83
2021/10/16 01:10:34;;;;;;;13.60;4.53;;;9.80;98.30;;;;;;5203371;22;20495;-83
2021/10/16 01:12:38;;;;;;;6.43;3.87;;;9.80;98.30;;;;;;5202966;22;20425;-83
2021/10/16 01:14:44;;;;;;;7.20;3.10;;;9.80;98.30;;;;;;5202260;22;20461;-83
2021/10/16 01:16:51;;;;;;;9.90;3.43;;;9.80;98.30;;;;;;5204001;22;20450;-83
2021/10/16 01:18:54;;;;;;;11.33;3.30;;;9.80;98.30;;;;;;5221854;22;20399;-83
2021/10/16 01:21:03;;;;;;;10.60;3.67;;;9.80;98.30;;;;;;5212767;22;20447;-84
2021/10/16 01:23:07;;;;;;;9.23;3.50;;;9.70;98.30;;;;;;5220855;22;20403;-83
2021/10/16 01:25:12;;;;;;;9.73;2.90;;;9.80;98.30;;;;;;5214622;22;20507;-83
2021/10/16 01:27:15;;;;;;;7.00;3.27;;;9.80;98.30;;;;;;5202362;22;20423;-83
2021/10/16 01:29:21;;;;;;;8.37;4.10;;;9.80;98.30;;;;;;5201967;22;20446;-83
2021/10/16 01:31:26;;;;;;;8.60;3.67;;;9.70;98.30;;;;;;5202491;22;21089;-84
2021/10/16 01:33:30;;;;;;;7.73;3.97;;;9.80;98.30;;;;;;5202182;22;20412;-83
2021/10/16 01:35:33;;;;;;;7.77;3.30;;;9.70;98.30;;;;;;5194628;22;20547;-83
2021/10/16 01:37:40;;;;;;;11.70;4.13;;;9.70;98.30;;;;;;5204485;22;20938;-83
2021/10/16 01:39:43;;;;;;;15.43;4.97;;;9.70;98.30;;;;;;5212112;22;20450;-83
2021/10/16 01:41:47;;;;;;;10.43;3.80;;;9.60;98.30;;;;;;5212326;22;20443;-83
2021/10/16 01:43:50;;;;;;;10.63;4.10;;;9.60;98.30;;;;;;5220913;22;20419;-83
2021/10/16 01:45:53;;;;;;;12.63;4.03;;;9.50;98.30;;;;;;5212128;22;20458;-83
2021/10/16 01:47:56;;;;;;;11.23;4.13;;;9.50;98.30;;;;;;5221254;22;20438;-83
2021/10/16 01:49:59;;;;;;;8.60;3.40;;;9.50;98.30;;;;;;5216217;22;20507;-84
2021/10/16 01:52:02;;;;;;;10.70;4.03;;;9.50;98.30;;;;;;5206673;22;20426;-84
2021/10/16 01:54:07;;;;;;;15.17;3.47;;;9.50;98.30;;;;;;5200506;22;20429;-83
2021/10/16 01:56:10;;;;;;;10.90;3.50;;;9.40;98.30;;;;;;5200613;22;20470;-83
2021/10/16 01:58:15;;;;;;;11.57;4.17;;;9.40;98.30;;;;;;5192431;22;20505;-84
2021/10/16 02:00:18;;;;;;;14.07;4.00;;;9.40;98.30;;;;;;5191847;22;20820;-84
2021/10/16 02:02:21;;;;;;;8.20;4.10;;;9.40;98.30;;;;;;5200379;22;20421;-84
2021/10/16 02:04:24;;;;;;;12.53;3.80;;;9.40;98.30;;;;;;5200322;22;20446;-83
2021/10/16 02:06:27;;;;;;;10.30;4.20;;;9.30;98.30;;;;;;5200297;22;20438;-84
2021/10/16 02:08:30;;;;;;;12.43;4.13;;;9.30;98.30;;;;;;5200199;22;20507;-83
2021/10/16 02:10:34;;;;;;;11.40;4.03;;;9.30;98.30;;;;;;5192655;22;20951;-83
2021/10/16 02:12:37;;;;;;;12.50;3.60;;;9.30;98.30;;;;;;5193523;22;20823;-83
2021/10/16 02:14:40;;;;;;;8.17;4.07;;;9.30;98.30;;;;;;5202104;22;20419;-82
2021/10/16 02:16:43;;;;;;;7.00;3.60;;;9.30;98.30;;;;;;5201663;22;20467;-82
2021/10/16 02:18:46;;;;;;;7.03;3.30;;;9.30;98.30;;;;;;5193443;22;20426;-83
2021/10/16 02:20:49;;;;;;;5.80;3.20;;;9.30;98.30;;;;;;5193427;22;20979;-83
2021/10/16 02:22:53;;;;;;;6.90;3.90;;;9.30;98.30;;;;;;5202012;22;21244;-83
2021/10/16 02:24:56;;;;;;;8.33;3.90;;;9.40;98.30;;;;;;5201282;22;20394;-83
2021/10/16 02:27:00;;;;;;;9.97;4.17;;;9.40;98.30;;;;;;5200350;22;20446;-83
2021/10/16 02:29:03;;;;;;;6.17;3.50;;;9.40;98.30;;;;;;5200096;22;20454;-83
2021/10/16 02:31:06;;;;;;;9.70;3.77;;;9.40;98.30;;;;;;5200400;22;21055;-84
2021/10/16 02:33:09;;;;;;;7.87;3.37;;;9.40;98.30;;;;;;5200787;22;20459;-83
2021/10/16 02:35:12;;;;;;;9.27;3.80;;;9.30;98.30;;;;;;5200056;22;20794;-83
2021/10/16 02:37:15;;;;;;;11.73;4.30;;;9.30;98.30;;;;;;5192218;22;20427;-83
2021/10/16 02:39:18;;;;;;;8.70;4.83;;;9.30;98.30;;;;;;5192130;22;20433;-83
2021/10/16 02:41:21;;;;;;;11.80;4.70;;;9.30;98.30;;;;;;5191824;22;20498;-83
2021/10/16 02:43:25;;;;;;;7.47;4.40;;;9.20;98.30;;;;;;5200086;22;20509;-84
2021/10/16 02:45:28;;;;;;;9.30;3.90;;;9.30;98.30;;;;;;5199827;22;20454;-83
2021/10/16 02:47:32;;;;;;;9.80;4.60;;;9.20;98.30;;;;;;5200436;22;20415;-83
2021/10/16 02:49:34;;;;;;;15.23;5.10;;;9.20;98.30;;;;;;5191882;22;20745;-83
2021/10/16 02:51:38;;;;;;;10.63;4.20;;;9.20;98.30;;;;;;5192699;22;20477;-83
2021/10/16 02:53:41;;;;;;;9.80;4.87;;;9.20;98.30;;;;;;5192232;22;20514;-83
2021/10/16 02:55:44;;;;;;;11.37;4.60;;;9.30;98.30;;;;;;5200281;22;20435;-83
2021/10/16 02:57:47;;;;;;;8.97;4.60;;;9.30;98.30;;;;;;5192105;22;20518;-83
2021/10/16 02:59:52;;;;;;;12.13;5.10;;;9.30;98.30;;;;;;5200416;22;20932;-83
2021/10/16 03:01:55;;;;;;;10.63;4.20;;;9.30;98.30;;;;;;5192093;22;20447;-83
2021/10/16 03:03:58;;;;;;;9.60;5.70;;;9.30;98.30;;;;;;5191976;22;20513;-83
2021/10/16 03:06:01;;;;;;;9.77;4.90;;;9.30;98.30;;;;;;5200368;22;20439;-82
2021/10/16 03:08:04;;;;;;;5.57;4.00;;;9.40;98.30;;;;;;5200923;22;20458;-83
2021/10/16 03:10:08;;;;;;;8.93;4.20;;;9.40;98.30;;;;;;5200740;22;20454;-83
2021/10/16 03:12:11;;;;;;;13.07;4.67;;;9.40;98.30;;;;;;5199598;22;20418;-84
2021/10/16 03:14:14;;;;;;;10.97;3.93;;;9.30;98.30;;;;;;5199948;22;20423;-84
2021/10/16 03:16:18;;;;;;;10.07;4.23;;;9.30;98.30;;;;;;5199084;22;20454;-84
2021/10/16 03:18:21;;;;;;;12.30;4.23;;;9.30;98.30;;;;;;5199926;22;20472;-84
2021/10/16 03:20:24;;;;;;;8.57;4.80;;;9.30;98.30;;;;;;5199981;22;20415;-84
2021/10/16 03:22:27;;;;;;;11.50;4.70;;;9.40;98.30;;;;;;5200183;22;20839;-83
2021/10/16 03:24:31;;;;;;;12.20;4.60;;;9.30;98.30;;;;;;5200618;22;20714;-84
2021/10/16 03:26:33;;;;;;;13.50;5.73;;;9.30;98.30;;;;;;5200154;22;20441;-83
2021/10/16 03:28:36;;;;;;;8.77;4.50;;;9.20;98.30;;;;;;5199993;22;20419;-83
2021/10/16 03:30:39;;;;;;;15.17;5.60;;;9.20;98.30;;;;;;5200129;22;20744;-84
2021/10/16 03:32:44;;;;;;;13.90;5.07;;;9.20;98.30;;;;;;5199716;22;20450;-83
2021/10/16 03:34:47;;;;;;;11.03;6.17;;;9.20;98.30;;;;;;5199745;22;20421;-84
2021/10/16 03:36:50;;;;;;;10.63;5.50;;;9.20;98.30;;;;;;5191125;22;20453;-83
2021/10/16 03:38:54;;;;;;;12.97;5.60;;;9.20;98.30;;;;;;5200377;22;20722;-83
2021/10/16 03:40:57;;;;;;;12.90;5.10;;;9.10;98.30;;;;;;5199436;22;20530;-83
2021/10/16 03:43:00;;;;;;;11.47;5.80;;;9.10;98.30;;;;;;5199494;22;20442;-83
2021/10/16 03:45:03;;;;;;;11.20;5.30;;;9.10;98.30;;;;;;5199898;22;20429;-83
2021/10/16 03:47:06;;;;;;;10.67;5.33;;;9.00;98.30;;;;;;5200611;22;20529;-83
2021/10/16 03:49:11;;;;;;;12.33;5.87;;;9.00;98.30;;;;;;5200104;22;20423;-83
2021/10/16 03:51:16;;;;;;;11.73;5.83;;;9.00;98.30;;;;;;5200131;22;20899;-83
2021/10/16 03:53:19;;;;;;;9.97;5.17;;;9.00;98.30;;;;;;5200138;22;20429;-83
2021/10/16 03:55:23;;;;;;;11.30;5.70;;;9.00;98.30;;;;;;5191406;22;20438;-83
2021/10/16 03:57:26;;;;;;;10.80;6.27;;;8.90;98.30;;;;;;5200397;22;20498;-82
2021/10/16 03:59:29;;;;;;;10.90;6.50;;;8.90;98.30;;;;;;5199538;22;20430;-84
2021/10/16 04:01:32;;;;;;;14.30;6.90;;;8.90;98.30;;;;;;5200079;22;20956;-84
2021/10/16 04:03:37;;;;;;;7.53;5.47;;;8.90;98.30;;;;;;5199711;22;20443;-84
2021/10/16 04:05:41;;;;;;;11.43;5.87;;;8.90;98.30;;;;;;5199039;22;20442;-83
2021/10/16 04:07:45;;;;;;;13.07;5.90;;;8.90;98.30;;;;;;5201787;22;20632;-84
2021/10/16 04:09:48;;;;;;;12.23;5.97;;;8.90;98.30;;;;;;5194643;22;20470;-83
2021/10/16 04:11:52;;;;;;;13.90;6.20;;;8.80;98.30;;;;;;5204822;22;20501;-83
2021/10/16 04:13:55;;;;;;;12.17;6.90;;;8.80;98.30;;;;;;5205867;22;20505;-83
2021/10/16 04:15:58;;;;;;;9.87;6.23;;;8.80;98.30;;;;;;5205040;22;20561;-84
2021/10/16 04:18:02;;;;;;;10.10;5.80;;;8.80;98.30;;;;;;5205994;22;20450;-84
2021/10/16 04:20:06;;;;;;;15.37;6.73;;;8.80;98.30;;;;;;5205018;22;20437;-83
2021/10/16 04:22:10;;;;;;;14.77;6.60;;;8.80;98.30;;;;;;5205453;22;20457;-83
2021/10/16 04:24:13;;;;;;;12.27;6.50;;;8.80;98.30;;;;;;5205400;22;20409;-84
2021/10/16 04:26:16;;;;;;;9.53;5.57;;;8.80;98.30;;;;;;5205252;22;20526;-84
2021/10/16 04:28:19;;;;;;;14.73;6.67;;;8.80;98.30;;;;;;5206449;22;20582;-83
2021/10/16 04:30:22;;;;;;;11.93;6.23;;;8.80;98.30;;;;;;5205637;22;20453;-83
2021/10/16 04:32:25;;;;;;;14.40;6.40;;;8.80;98.30;;;;;;5206055;22;20543;-83
2021/10/16 04:34:28;;;;;;;11.90;5.87;;;8.80;98.30;;;;;;5206377;22;20431;-83
2021/10/16 04:36:31;;;;;;;12.30;6.50;;;8.70;98.30;;;;;;5207160;22;20516;-83
2021/10/16 04:38:36;;;;;;;16.33;7.00;;;8.70;98.30;;;;;;5208195;22;20812;-83
2021/10/16 04:40:39;;;;;;;13.73;6.60;;;8.70;98.30;;;;;;5208334;22;20432;-82
2021/10/16 04:42:43;;;;;;;12.63;6.30;;;8.70;98.30;;;;;;5200118;22;20417;-83
2021/10/16 04:44:46;;;;;;;19.20;8.40;;;8.70;98.30;;;;;;5200017;22;20514;-83
2021/10/16 04:46:49;;;;;;;10.30;6.30;;;8.70;98.30;;;;;;5209526;22;20594;-83
2021/10/16 04:48:52;;;;;;;13.37;6.33;;;8.70;98.30;;;;;;5211245;22;20783;-83
2021/10/16 04:50:55;;;;;;;13.93;6.77;;;8.70;98.30;;;;;;5210531;22;20398;-83
2021/10/16 04:52:59;;;;;;;11.37;6.33;;;8.70;98.30;;;;;;5210371;22;20457;-83
2021/10/16 04:55:04;;;;;;;11.03;6.47;;;8.70;98.30;;;;;;5210981;22;21262;-84
2021/10/16 04:57:07;;;;;;;13.40;6.20;;;8.70;98.30;;;;;;5210272;22;20939;-83
2021/10/16 04:59:10;;;;;;;8.53;5.93;;;8.70;98.30;;;;;;5211025;22;20418;-84
2021/10/16 05:01:13;;;;;;;10.67;5.90;;;8.70;98.30;;;;;;5211281;22;20414;-84
2021/10/16 05:03:15;;;;;;;9.90;5.50;;;8.70;98.30;;;;;;5207026;22;20451;-82
2021/10/16 05:05:19;;;;;;;11.10;5.57;;;8.70;98.30;;;;;;5205236;22;20423;-82
2021/10/16 05:07:22;;;;;;;11.47;5.70;;;8.80;98.30;;;;;;5205817;22;20513;-83
2021/10/16 05:09:25;;;;;;;13.17;6.73;;;8.80;98.30;;;;;;5205840;22;20783;-83
2021/10/16 05:11:29;;;;;;;12.97;5.83;;;8.80;98.30;;;;;;5204767;22;20949;-83
2021/10/16 05:13:32;;;;;;;8.90;5.63;;;8.80;98.30;;;;;;5205494;22;20415;-83
2021/10/16 05:15:35;;;;;;;12.10;5.70;;;8.80;98.30;;;;;;5204931;22;20975;-84
2021/10/16 05:17:38;;;;;;;14.40;6.60;;;8.80;98.30;;;;;;5206674;22;20423;-83
2021/10/16 05:19:41;;;;;;;10.63;6.80;;;8.80;98.30;;;;;;5206791;22;20433;-84
2021/10/16 05:21:44;;;;;;;12.83;6.73;;;8.80;98.30;;;;;;5205726;22;20433;-83
2021/10/16 05:23:47;;;;;;;14.67;6.30;;;8.80;98.30;;;;;;5205596;22;20768;-83
2021/10/16 05:25:51;;;;;;;12.17;6.30;;;8.80;98.30;;;;;;5204014;22;20909;-83
2021/10/16 05:27:56;;;;;;;25.07;12.17;;;8.80;98.30;;;;;;5205983;22;20446;-83
2021/10/16 05:29:59;;;;;;;9.90;6.87;;;8.80;98.30;;;;;;5206460;22;20425;-83
2021/10/16 05:32:02;;;;;;;29.40;19.63;;;8.80;98.30;;;;;;5208199;22;20432;-83
2021/10/16 05:34:05;;;;;;;20.03;11.63;;;8.90;98.30;;;;;;5208213;22;20896;-84
2021/10/16 05:36:08;;;;;;;12.20;6.63;;;8.90;98.30;;;;;;5198591;22;20447;-83
2021/10/16 05:38:11;;;;;;;15.60;8.47;;;9.00;98.30;;;;;;5207329;22;20454;-84
2021/10/16 05:40:14;;;;;;;14.70;10.10;;;9.10;98.30;;;;;;5206907;22;20426;-83
2021/10/16 05:42:17;;;;;;;18.80;11.57;;;9.00;98.30;;;;;;5206755;22;20820;-84
2021/10/16 05:44:21;;;;;;;9.70;5.77;;;9.10;98.30;;;;;;5206903;22;20438;-83
2021/10/16 05:46:25;;;;;;;9.67;5.30;;;9.10;98.30;;;;;;5206537;22;20457;-83
2021/10/16 05:48:30;;;;;;;13.60;5.57;;;9.10;98.30;;;;;;5206979;22;20423;-84
2021/10/16 05:50:33;;;;;;;11.67;5.60;;;9.00;98.30;;;;;;5199727;22;20952;-83
2021/10/16 05:52:37;;;;;;;12.20;6.30;;;8.90;98.30;;;;;;5207790;22;20507;-83
2021/10/16 05:54:40;;;;;;;11.97;6.07;;;8.90;98.30;;;;;;5208731;22;20504;-83
2021/10/16 05:56:43;;;;;;;12.23;5.97;;;8.80;98.30;;;;;;5205975;22;20449;-84
2021/10/16 05:58:46;;;;;;;9.73;6.47;;;8.80;98.30;;;;;;5207276;22;20429;-83
2021/10/16 06:00:50;;;;;;;8.07;4.80;;;8.70;98.30;;;;;;5206669;22;20871;-82
2021/10/16 06:02:53;;;;;;;16.63;6.57;;;8.70;98.30;;;;;;5206754;22;20411;-84
2021/10/16 06:04:57;;;;;;;11.20;6.70;;;8.60;98.30;;;;;;5199084;22;20434;-83
2021/10/16 06:07:00;;;;;;;12.13;5.70;;;8.60;98.30;;;;;;5207132;22;20508;-83
2021/10/16 06:09:27;;;;;;;10.00;5.57;;;8.60;98.30;;;;;;5207373;22;20441;-83
2021/10/16 06:11:30;;;;;;;8.97;5.40;;;8.50;98.30;;;;;;5206488;22;20924;-82
2021/10/16 06:13:33;;;;;;;12.47;7.70;;;8.60;98.30;;;;;;5205932;22;20439;-83
2021/10/16 06:15:36;;;;;;;12.97;5.40;;;8.50;98.30;;;;;;5206247;22;20453;-83
2021/10/16 06:17:40;;;;;;;13.30;5.37;;;8.50;98.30;;;;;;5206654;22;20421;-83
2021/10/16 06:19:45;;;;;;;13.07;5.83;;;8.50;98.30;;;;;;5206988;22;20486;-82
2021/10/16 06:21:48;;;;;;;13.17;6.57;;;8.50;98.30;;;;;;5207915;22;20951;-83
2021/10/16 06:23:51;;;;;;;9.77;5.97;;;8.50;98.30;;;;;;5207391;22;20418;-83
2021/10/16 06:25:53;;;;;;;12.07;5.57;;;8.60;98.30;;;;;;5206742;22;20443;-83
2021/10/16 06:27:56;;;;;;;10.57;5.70;;;8.60;98.30;;;;;;5206496;22;20423;-83
2021/10/16 06:30:00;;;;;;;9.93;5.50;;;8.60;98.30;;;;;;5206123;22;20449;-83
2021/10/16 06:32:03;;;;;;;14.93;6.00;;;8.60;98.30;;;;;;5207689;22;20443;-83
2021/10/16 06:34:08;;;;;;;12.93;5.97;;;8.60;98.30;;;;;;5208637;22;20449;-84
2021/10/16 06:36:11;;;;;;;10.30;5.90;;;8.60;98.30;;;;;;5205611;22;20457;-83
2021/10/16 06:38:14;;;;;;;11.03;5.37;;;8.80;98.30;;;;;;5204858;22;20415;-83
2021/10/16 06:40:17;;;;;;;11.10;5.40;;;8.80;98.30;;;;;;5207210;22;20924;-82
2021/10/16 06:42:20;;;;;;;17.00;11.77;;;8.90;98.30;;;;;;5205355;22;20443;-84
2021/10/16 06:44:23;;;;;;;11.27;6.70;;;9.00;98.30;;;;;;5204227;22;20463;-83
2021/10/16 06:46:26;;;;;;;7.53;4.87;;;9.10;98.30;;;;;;5195091;22;20428;-83
2021/10/16 06:48:29;;;;;;;7.80;4.27;;;9.20;98.30;;;;;;5203542;22;20986;-83
2021/10/16 06:50:34;;;;;;;7.87;4.60;;;9.10;98.30;;;;;;5203456;22;20454;-82
2021/10/16 06:52:37;;;;;;;12.70;5.20;;;9.00;98.30;;;;;;5204456;22;20793;-83
2021/10/16 06:54:40;;;;;;;8.10;5.50;;;9.00;98.30;;;;;;5196347;22;20450;-83
2021/10/16 06:56:43;;;;;;;10.33;4.90;;;8.90;98.30;;;;;;5203764;22;20431;-84
2021/10/16 06:58:46;;;;;;;10.00;4.57;;;8.90;98.30;;;;;;5205329;22;20457;-84
2021/10/16 07:00:49;;;;;;;7.20;4.53;;;9.00;98.30;;;;;;5204788;22;20432;-83
2021/10/16 07:02:52;;;;;;;12.93;4.63;;;9.00;98.30;;;;;;5205749;22;20490;-83
2021/10/16 07:04:57;;;;;;;7.47;4.90;;;8.90;98.30;;;;;;5205731;22;20522;-82
2021/10/16 07:07:02;;;;;;;11.43;4.77;;;9.00;98.30;;;;;;5201117;22;20535;-82
2021/10/16 07:09:05;;;;;;;10.60;4.07;;;9.00;98.30;;;;;;5209014;22;20522;-83
2021/10/16 07:11:07;;;;;;;17.03;5.43;;;9.00;98.30;;;;;;5208962;22;20426;-83
2021/10/16 07:13:11;;;;;;;9.43;5.00;;;9.00;98.30;;;;;;5207301;22;20506;-83
2021/10/16 07:15:14;;;;;;;13.10;4.50;;;9.00;98.30;;;;;;5195569;22;20466;-83
2021/10/16 07:17:17;;;;;;;10.27;4.33;;;9.00;98.30;;;;;;5204520;22;20421;-83
2021/10/16 07:19:20;;;;;;;9.30;4.70;;;9.00;98.30;;;;;;5204728;22;20423;-83
2021/10/16 07:21:23;;;;;;;10.43;4.83;;;9.10;98.30;;;;;;5196656;22;20434;-83
2021/10/16 07:23:36;;;;;;;8.73;5.33;;;9.10;98.30;;;;;;5205738;22;20419;-82
2021/10/16 07:25:39;;;;;;;5.60;4.37;;;9.10;98.30;;;;;;5209473;22;20531;-83
2021/10/16 07:27:42;;;;;;;10.33;5.10;;;9.20;98.30;;;;;;5209885;22;20797;-83
2021/10/16 07:29:45;;;;;;;8.90;5.20;;;9.30;98.30;;;;;;5202863;22;20429;-83
2021/10/16 07:31:48;;;;;;;9.27;4.03;;;9.40;98.30;;;;;;5211396;22;20520;-83
2021/10/16 07:33:51;;;;;;;7.93;4.40;;;9.50;98.30;;;;;;5200442;22;20431;-83
2021/10/16 07:35:54;;;;;;;7.83;4.90;;;9.50;98.30;;;;;;5209505;22;20469;-83
2021/10/16 07:37:57;;;;;;;14.97;5.10;;;9.50;98.30;;;;;;5209446;22;20435;-83
2021/10/16 07:40:02;;;;;;;11.63;4.83;;;9.50;98.30;;;;;;5208515;22;20410;-82
2021/10/16 07:42:05;;;;;;;9.37;4.93;;;9.60;98.30;;;;;;5198402;22;20469;-83
2021/10/16 07:44:08;;;;;;;11.70;4.70;;;9.60;98.30;;;;;;5207549;22;20456;-82
2021/10/16 07:46:11;;;;;;;8.37;3.83;;;9.60;98.30;;;;;;5205750;22;20816;-83
2021/10/16 07:48:14;;;;;;;11.30;5.00;;;9.60;98.30;;;;;;5207918;22;20423;-83
2021/10/16 07:50:18;;;;;;;7.23;3.60;;;9.70;98.30;;;;;;5200861;22;20453;-83
2021/10/16 07:52:21;;;;;;;8.27;4.20;;;9.70;98.30;;;;;;5208462;22;20426;-82
2021/10/16 07:54:24;;;;;;;6.10;3.67;;;9.70;98.30;;;;;;5208259;22;20482;-83
2021/10/16 07:56:28;;;;;;;5.97;3.67;;;9.80;98.30;;;;;;5208145;22;20530;-82
2021/10/16 07:58:31;;;;;;;7.00;4.20;;;9.80;98.30;;;;;;5208878;22;20792;-82
2021/10/16 08:00:34;;;;;;;8.03;3.80;;;9.80;98.30;;;;;;5214953;22;20453;-82
2021/10/16 08:02:38;;;;;;;6.53;3.50;;;9.80;98.30;;;;;;5212388;22;20423;-83
2021/10/16 08:04:41;;;;;;;6.30;3.03;;;9.90;98.30;;;;;;5206277;22;20442;-83
2021/10/16 08:06:45;;;;;;;9.47;4.27;;;9.90;98.30;;;;;;5205047;22;20529;-83
2021/10/16 08:08:48;;;;;;;6.13;4.03;;;10.00;98.30;;;;;;5206333;22;20468;-83
2021/10/16 08:10:56;;;;;;;12.03;4.13;;;10.10;98.30;;;;;;5205630;22;20478;-84
2021/10/16 08:13:03;;;;;;;7.03;3.60;;;10.10;98.30;;;;;;5203937;22;20449;-83
2021/10/16 08:15:14;;;;;;;9.20;4.13;;;10.10;98.30;;;;;;5201572;22;20437;-84
2021/10/16 08:17:17;;;;;;;5.77;3.83;;;10.20;98.30;;;;;;5204143;22;20868;-85
2021/10/16 08:19:27;;;;;;;6.80;3.80;;;10.20;98.30;;;;;;5204923;22;20880;-83
2021/10/16 08:21:30;;;;;;;5.27;3.77;;;10.30;98.30;;;;;;5200768;22;20423;-83
2021/10/16 08:23:33;;;;;;;8.80;4.17;;;10.30;98.30;;;;;;5219712;22;21051;-83
2021/10/16 08:25:40;;;;;;;10.60;4.20;;;10.50;98.30;;;;;;5215903;22;20477;-84
2021/10/16 08:27:46;;;;;;;4.30;3.37;;;10.70;98.30;;;;;;5205548;22;20506;-83
2021/10/16 08:29:51;;;;;;;7.20;3.60;;;10.80;98.30;;;;;;5204973;22;20423;-84
2021/10/16 08:31:54;;;;;;;4.80;3.37;;;10.90;98.30;;;;;;5205629;22;20422;-83
2021/10/16 08:33:58;;;;;;;6.37;4.30;;;11.10;98.30;;;;;;5206962;22;20430;-83
2021/10/16 08:36:02;;;;;;;4.47;3.60;;;11.50;98.30;;;;;;5205880;22;20435;-83
2021/10/16 08:38:05;;;;;;;4.17;3.43;;;11.70;98.30;;;;;;5210654;22;20492;-84
2021/10/16 08:40:11;;;;;;;6.93;2.90;;;11.80;98.30;;;;;;5220102;22;20426;-84
2021/10/16 08:42:14;;;;;;;6.53;3.87;;;11.90;98.30;;;;;;5211740;22;20427;-84
2021/10/16 08:44:19;;;;;;;4.33;2.80;;;11.90;98.30;;;;;;5221567;22;20660;-83
2021/10/16 08:46:25;;;;;;;11.70;3.87;;;11.80;98.30;;;;;;5219769;22;20460;-83
2021/10/16 08:48:29;;;;;;;6.83;3.40;;;11.70;98.30;;;;;;5207525;22;20513;-84
2021/10/16 08:50:35;;;;;;;10.87;3.53;;;11.80;98.30;;;;;;5203796;22;20462;-84
2021/10/16 08:52:39;;;;;;;7.17;2.90;;;11.70;98.30;;;;;;5203448;22;20926;-83
2021/10/16 08:54:42;;;;;;;5.80;3.67;;;11.60;98.30;;;;;;5203156;22;20426;-84
2021/10/16 08:56:45;;;;;;;5.27;3.50;;;11.60;98.30;;;;;;5202328;22;20534;-84
2021/10/16 08:58:48;;;;;;;7.90;4.27;;;11.80;98.30;;;;;;5202680;22;20450;-84
2021/10/16 09:00:55;;;;;;;7.63;5.07;;;11.90;98.30;;;;;;5201508;22;20900;-84
2021/10/16 09:03:15;;;;;;;8.40;3.87;;;12.10;98.30;;;;;;5202237;22;20476;-84
2021/10/16 09:05:21;;;;;;;4.83;3.40;;;12.30;98.30;;;;;;5200969;22;21110;-84
2021/10/16 09:07:27;;;;;;;7.07;3.67;;;12.50;98.30;;;;;;5201501;22;20432;-84
2021/10/16 09:09:35;;;;;;;4.77;2.90;;;12.50;98.30;;;;;;5201487;22;20407;-84
2021/10/16 09:11:39;;;;;;;6.70;3.90;;;12.40;98.30;;;;;;5201601;22;20505;-83
2021/10/16 09:13:47;;;;;;;8.67;3.10;;;12.20;98.30;;;;;;5201185;22;20423;-84
2021/10/16 09:15:52;;;;;;;6.57;3.17;;;12.20;98.30;;;;;;5200668;22;20450;-84
2021/10/16 09:18:05;;;;;;;8.37;3.27;;;12.20;98.30;;;;;;5201545;22;20473;-84
2021/10/16 09:20:12;;;;;;;5.83;3.17;;;12.20;98.30;;;;;;5201776;22;20407;-84
2021/10/16 09:22:20;;;;;;;5.40;3.20;;;12.20;98.30;;;;;;5201788;22;20429;-84
2021/10/16 09:24:25;;;;;;;7.10;2.73;;;12.00;98.30;;;;;;5201558;22;20949;-83
2021/10/16 09:26:29;;;;;;;4.27;2.87;;;11.90;98.30;;;;;;5153027;22;20461;-81
2021/10/16 09:28:33;;;;;;;3.83;2.87;;;11.80;98.30;;;;;;5152031;23;20421;-82
2021/10/16 09:30:46;;;;;;;6.20;3.10;;;11.90;98.30;;;;;;5152312;23;20433;-81
2021/10/16 09:32:56;;;;;;;5.00;3.17;;;12.00;98.30;;;;;;5151688;23;20483;-81
2021/10/16 09:35:02;;;;;;;7.27;3.00;;;12.10;98.30;;;;;;5151342;23;20458;-81
2021/10/16 09:37:07;;;;;;;5.87;3.10;;;12.10;98.30;;;;;;5151500;23;20421;-81
2021/10/16 09:39:21;;;;;;;4.53;2.97;;;12.20;98.30;;;;;;5152072;23;20456;-81
2021/10/16 09:41:26;;;;;;;7.13;4.03;;;12.30;98.30;;;;;;5143073;23;20425;-81
2021/10/16 09:43:32;;;;;;;5.00;2.90;;;12.30;98.30;;;;;;5143456;23;20432;-81
2021/10/16 09:45:40;;;;;;;9.03;4.10;;;12.20;98.30;;;;;;5152290;23;20535;-81
2021/10/16 09:47:56;;;;;;;5.70;2.93;;;12.20;98.30;;;;;;5143151;23;20988;-82
2021/10/16 09:50:06;;;;;;;4.70;3.43;;;12.20;98.30;;;;;;5151252;23;20834;-81
2021/10/16 09:52:11;;;;;;;7.67;3.30;;;12.40;98.30;;;;;;5151177;23;20503;-81
2021/10/16 09:54:14;;;;;;;6.37;3.10;;;12.50;98.30;;;;;;5143278;23;20425;-81
2021/10/16 09:56:18;;;;;;;6.60;3.03;;;12.50;98.30;;;;;;5142833;23;20472;-81
2021/10/16 09:58:24;;;;;;;4.63;2.70;;;12.50;98.30;;;;;;5152285;23;20879;-81
2021/10/16 10:00:27;;;;;;;4.63;2.90;;;12.70;98.30;;;;;;5144065;23;20433;-81
2021/10/16 10:02:32;;;;;;;6.63;2.97;;;12.90;98.30;;;;;;5143412;23;21076;-81
2021/10/16 10:04:37;;;;;;;5.50;2.67;;;13.10;98.30;;;;;;5153655;23;20803;-81
2021/10/16 10:06:42;;;;;;;7.80;2.90;;;13.10;98.30;;;;;;5154923;23;21040;-81
2021/10/16 10:08:45;;;;;;;5.37;2.80;;;13.10;98.30;;;;;;5155133;23;20424;-80
2021/10/16 10:10:49;;;;;;;4.33;2.60;;;12.90;98.30;;;;;;5147419;23;20436;-81
2021/10/16 10:12:52;;;;;;;5.20;2.77;;;12.80;98.30;;;;;;5148020;23;20932;-81
2021/10/16 10:14:56;;;;;;;3.90;2.43;;;12.60;98.30;;;;;;5146648;23;20515;-81
2021/10/16 10:17:00;;;;;;;5.70;3.13;;;12.70;98.30;;;;;;5146892;23;20512;-80
2021/10/16 10:19:04;;;;;;;3.03;2.60;;;12.60;98.30;;;;;;5147097;23;20425;-81
2021/10/16 10:21:09;;;;;;;9.17;2.90;;;12.60;98.30;;;;;;5146162;23;20511;-81
2021/10/16 10:23:27;;;;;;;5.00;2.90;;;12.70;98.30;;;;;;5147149;23;20428;-81
2021/10/16 10:25:30;;;;;;;3.57;2.60;;;13.00;98.30;;;;;;5146397;23;20451;-80
2021/10/16 10:27:44;;;;;;;7.07;2.97;;;13.20;98.30;;;;;;5155340;23;20515;-81
2021/10/16 10:29:56;;;;;;;9.87;3.33;;;13.30;98.30;;;;;;5146599;23;20437;-81
2021/10/16 10:32:17;;;;;;;4.50;3.50;;;13.30;98.30;;;;;;5156726;23;20922;-81
2021/10/16 10:34:24;;;;;;;9.90;3.30;;;13.50;98.30;;;;;;5156028;23;20432;-81
2021/10/16 10:36:27;;;;;;;7.87;3.20;;;13.80;98.30;;;;;;5147610;23;20484;-81
2021/10/16 10:38:32;;;;;;;6.13;3.20;;;13.90;98.30;;;;;;5156100;23;20423;-80
2021/10/16 10:40:38;;;;;;;7.20;2.77;;;14.00;98.30;;;;;;5146920;23;20425;-80
2021/10/16 10:42:42;;;;;;;7.47;3.33;;;13.80;98.30;;;;;;5157052;23;20489;-80
2021/10/16 10:44:47;;;;;;;5.60;3.30;;;13.50;98.30;;;;;;5155652;23;20432;-81
2021/10/16 10:46:57;;;;;;;7.40;3.70;;;13.60;98.30;;;;;;5156738;23;20492;-81
2021/10/16 10:49:08;;;;;;;4.10;3.00;;;14.10;98.30;;;;;;5148205;23;20513;-81